KPDK/PDK METAR and TAF weather

Enter ICAO airport designator
Station Type Date Time Source
KPDK METAR 2021/08/01 16:53 UTC NOAA

KPDK 011653Z 31012G19KT 10SM FEW034 30/21 A3000 RMK AO2 SLP137 T03000211


Station Type Date Time Source
KPDK Decoded METAR 2021/08/01 16:53 UTC NOAA

ATLANTA DE KALB-PEACHTREE, GA, United States (KPDK) 33-53N 084-18W 302M
Aug 01, 2021 - 12:53 PM EDT / 2021.08.01 1653 UTC
Wind: from the NW (310 degrees) at 14 MPH (12 KT) gusting to 22 MPH (19 KT):0
Visibility: 10 mile(s):0
Sky conditions: mostly clear
Temperature: 86.0 F (30.0 C)
Dew Point: 70.0 F (21.1 C)
Relative Humidity: 58%
Pressure (altimeter): 30 in. Hg (1015 hPa)
ob: KPDK 011653Z 31012G19KT 10SM FEW034 30/21 A3000 RMK AO2 SLP137 T03000211
cycle: 17

Station Type Date Time Source
KPDK TAF 2021/08/01 17:42 UTC NOAA

TAF
AMD KPDK 011641Z 0117/0212 31012G20KT P6SM BKN035
FM011900 29011G18KT P6SM VCSH BKN040
TEMPO 0120/0124 4SM TSRA BKN035CB
FM020200 31006KT P6SM SCT050 BKN250
FM020500 33004KT P6SM SCT250

Example: see airport list